sensor_id;sensor_type;location;lat;lon;timestamp;temperature;humidity
22337;DHT22;14992;50.844;4.418;2023-03-01T00:00:09;2.50;99.90
22337;DHT22;14992;50.844;4.418;2023-03-01T00:02:38;2.50;99.90
22337;DHT22;14992;50.844;4.418;2023-03-01T00:05:08;2.50;99.90
22337;DHT22;14992;50.844;4.418;2023-03-01T00:07:38;2.50;99.90
22337;DHT22;14992;50.844;4.418;2023-03-01T00:10:08;2.70;99.90
22337;DHT22;14992;50.844;4.418;2023-03-01T00:12:37;2.70;99.90
22337;DHT22;14992;50.844;4.418;2023-03-01T00:15:07;2.70;99.90
22337;DHT22;14992;50.844;4.418;2023-03-01T00:17:35;2.60;99.90
22337;DHT22;14992;50.844;4.418;2023-03-01T00:20:05;2.70;99.90
22337;DHT22;14992;50.844;4.418;2023-03-01T00:22:38;2.80;99.90
22337;DHT22;14992;50.844;4.418;2023-03-01T00:25:08;2.80;99.90
22337;DHT22;14992;50.844;4.418;2023-03-01T00:27:37;3.00;99.90
22337;DHT22;14992;50.844;4.418;2023-03-01T00:30:07;3.10;99.90
22337;DHT22;14992;50.844;4.418;2023-03-01T00:32:35;3.00;99.90
22337;DHT22;14992;50.844;4.418;2023-03-01T00:35:04;3.00;99.90
22337;DHT22;14992;50.844;4.418;2023-03-01T00:37:33;2.90;99.90
22337;DHT22;14992;50.844;4.418;2023-03-01T00:40:04;2.70;99.90
22337;DHT22;14992;50.844;4.418;2023-03-01T00:42:34;2.70;99.90
22337;DHT22;14992;50.844;4.418;2023-03-01T00:45:04;2.80;99.90
22337;DHT22;14992;50.844;4.418;2023-03-01T00:47:32;2.70;99.90
22337;DHT22;14992;50.844;4.418;2023-03-01T00:50:01;2.90;99.90
22337;DHT22;14992;50.844;4.418;2023-03-01T00:52:30;2.90;99.90
22337;DHT22;14992;50.844;4.418;2023-03-01T00:54:59;2.80;99.90
22337;DHT22;14992;50.844;4.418;2023-03-01T00:57:29;2.80;99.90
22337;DHT22;14992;50.844;4.418;2023-03-01T00:59:58;2.70;99.90
22337;DHT22;14992;50.844;4.418;2023-03-01T01:02:26;2.70;99.90
22337;DHT22;14992;50.844;4.418;2023-03-01T01:04:55;2.70;99.90
22337;DHT22;14992;50.844;4.418;2023-03-01T01:07:24;2.60;99.90
22337;DHT22;14992;50.844;4.418;2023-03-01T01:09:53;2.50;99.90
22337;DHT22;14992;50.844;4.418;2023-03-01T01:12:22;2.70;99.90
22337;DHT22;14992;50.844;4.418;2023-03-01T01:14:52;2.80;99.90
22337;DHT22;14992;50.844;4.418;2023-03-01T01:17:21;2.80;99.90
22337;DHT22;14992;50.844;4.418;2023-03-01T01:19:49;2.60;99.90
22337;DHT22;14992;50.844;4.418;2023-03-01T01:22:18;2.50;99.90
22337;DHT22;14992;50.844;4.418;2023-03-01T01:24:47;2.50;99.90
22337;DHT22;14992;50.844;4.418;2023-03-01T01:27:16;2.50;99.90
22337;DHT22;14992;50.844;4.418;2023-03-01T01:29:44;2.40;99.90
22337;DHT22;14992;50.844;4.418;2023-03-01T01:32:14;2.50;99.90
22337;DHT22;14992;50.844;4.418;2023-03-01T01:34:43;2.50;99.90
22337;DHT22;14992;50.844;4.418;2023-03-01T01:37:13;2.50;99.90
22337;DHT22;14992;50.844;4.418;2023-03-01T01:39:42;2.50;99.90
22337;DHT22;14992;50.844;4.418;2023-03-01T01:42:14;2.40;99.90
22337;DHT22;14992;50.844;4.418;2023-03-01T01:44:46;2.30;99.90
22337;DHT22;14992;50.844;4.418;2023-03-01T01:47:18;2.20;99.90
22337;DHT22;14992;50.844;4.418;2023-03-01T01:49:50;2.10;99.90
22337;DHT22;14992;50.844;4.418;2023-03-01T01:52:21;2.20;99.90
22337;DHT22;14992;50.844;4.418;2023-03-01T01:54:54;2.10;99.90
22337;DHT22;14992;50.844;4.418;2023-03-01T01:57:29;2.10;99.90
22337;DHT22;14992;50.844;4.418;2023-03-01T02:00:06;2.00;99.90
22337;DHT22;14992;50.844;4.418;2023-03-01T02:02:45;2.00;99.90
22337;DHT22;14992;50.844;4.418;2023-03-01T02:05:21;2.10;99.90
22337;DHT22;14992;50.844;4.418;2023-03-01T02:07:52;2.10;99.90
22337;DHT22;14992;50.844;4.418;2023-03-01T02:10:22;2.00;99.90
22337;DHT22;14992;50.844;4.418;2023-03-01T02:12:52;2.10;99.90
22337;DHT22;14992;50.844;4.418;2023-03-01T02:15:21;2.10;99.90
22337;DHT22;14992;50.844;4.418;2023-03-01T02:17:52;2.00;99.90
22337;DHT22;14992;50.844;4.418;2023-03-01T02:20:26;2.00;99.90
22337;DHT22;14992;50.844;4.418;2023-03-01T02:22:58;2.00;99.90
22337;DHT22;14992;50.844;4.418;2023-03-01T02:25:32;2.00;99.90
22337;DHT22;14992;50.844;4.418;2023-03-01T02:28:10;2.20;99.90
22337;DHT22;14992;50.844;4.418;2023-03-01T02:30:43;2.20;99.90
22337;DHT22;14992;50.844;4.418;2023-03-01T02:33:26;2.40;99.90
22337;DHT22;14992;50.844;4.418;2023-03-01T02:35:56;2.30;99.90
22337;DHT22;14992;50.844;4.418;2023-03-01T02:38:25;2.30;99.90
22337;DHT22;14992;50.844;4.418;2023-03-01T02:40:54;2.10;99.90
22337;DHT22;14992;50.844;4.418;2023-03-01T02:43:29;2.10;99.90
22337;DHT22;14992;50.844;4.418;2023-03-01T02:46:06;2.40;99.90
22337;DHT22;14992;50.844;4.418;2023-03-01T02:48:43;2.50;99.90
22337;DHT22;14992;50.844;4.418;2023-03-01T02:51:22;2.40;99.90
22337;DHT22;14992;50.844;4.418;2023-03-01T02:54:04;2.40;99.90
22337;DHT22;14992;50.844;4.418;2023-03-01T02:56:35;2.50;99.90
22337;DHT22;14992;50.844;4.418;2023-03-01T02:59:04;2.50;99.90
22337;DHT22;14992;50.844;4.418;2023-03-01T03:01:36;2.40;99.90
22337;DHT22;14992;50.844;4.418;2023-03-01T03:04:10;2.30;99.90
22337;DHT22;14992;50.844;4.418;2023-03-01T03:06:39;2.30;99.90
22337;DHT22;14992;50.844;4.418;2023-03-01T03:09:09;2.30;99.90
22337;DHT22;14992;50.844;4.418;2023-03-01T03:11:38;2.10;99.90
22337;DHT22;14992;50.844;4.418;2023-03-01T03:14:08;1.90;99.90
22337;DHT22;14992;50.844;4.418;2023-03-01T03:16:44;1.80;99.90
22337;DHT22;14992;50.844;4.418;2023-03-01T03:19:13;1.70;99.90
22337;DHT22;14992;50.844;4.418;2023-03-01T03:21:44;1.80;99.90
22337;DHT22;14992;50.844;4.418;2023-03-01T03:24:12;1.70;99.90
22337;DHT22;14992;50.844;4.418;2023-03-01T03:26:41;1.70;99.90
22337;DHT22;14992;50.844;4.418;2023-03-01T03:29:10;1.60;99.90
22337;DHT22;14992;50.844;4.418;2023-03-01T03:31:39;1.60;99.90
22337;DHT22;14992;50.844;4.418;2023-03-01T03:34:09;1.60;99.90
22337;DHT22;14992;50.844;4.418;2023-03-01T03:36:44;1.50;99.90
22337;DHT22;14992;50.844;4.418;2023-03-01T03:39:13;1.60;99.90
22337;DHT22;14992;50.844;4.418;2023-03-01T03:41:42;1.50;99.90
22337;DHT22;14992;50.844;4.418;2023-03-01T03:44:11;1.40;99.90
22337;DHT22;14992;50.844;4.418;2023-03-01T03:46:40;1.20;99.90
22337;DHT22;14992;50.844;4.418;2023-03-01T03:49:10;1.10;99.90
22337;DHT22;14992;50.844;4.418;2023-03-01T03:51:39;0.90;99.90
22337;DHT22;14992;50.844;4.418;2023-03-01T03:54:08;0.90;99.90
22337;DHT22;14992;50.844;4.418;2023-03-01T03:56:37;0.90;99.90
22337;DHT22;14992;50.844;4.418;2023-03-01T03:59:07;0.90;99.90
22337;DHT22;14992;50.844;4.418;2023-03-01T04:01:38;0.90;99.90
22337;DHT22;14992;50.844;4.418;2023-03-01T04:04:07;0.90;99.90
22337;DHT22;14992;50.844;4.418;2023-03-01T04:06:37;1.00;99.90
22337;DHT22;14992;50.844;4.418;2023-03-01T04:09:06;1.00;99.90
22337;DHT22;14992;50.844;4.418;2023-03-01T04:11:35;1.00;99.90
22337;DHT22;14992;50.844;4.418;2023-03-01T04:14:06;1.00;99.90
22337;DHT22;14992;50.844;4.418;2023-03-01T04:16:34;0.90;99.90
22337;DHT22;14992;50.844;4.418;2023-03-01T04:19:03;0.90;99.90
22337;DHT22;14992;50.844;4.418;2023-03-01T04:21:33;0.90;99.90
22337;DHT22;14992;50.844;4.418;2023-03-01T04:24:05;1.00;99.90
22337;DHT22;14992;50.844;4.418;2023-03-01T04:26:34;0.90;99.90
22337;DHT22;14992;50.844;4.418;2023-03-01T04:29:03;0.90;99.90
22337;DHT22;14992;50.844;4.418;2023-03-01T04:31:31;0.80;99.90
22337;DHT22;14992;50.844;4.418;2023-03-01T04:34:01;0.80;99.90
22337;DHT22;14992;50.844;4.418;2023-03-01T04:36:30;0.90;99.90
22337;DHT22;14992;50.844;4.418;2023-03-01T04:39:00;0.90;99.90
22337;DHT22;14992;50.844;4.418;2023-03-01T04:41:41;0.90;99.90
22337;DHT22;14992;50.844;4.418;2023-03-01T04:44:10;1.00;99.90
22337;DHT22;14992;50.844;4.418;2023-03-01T04:46:40;0.90;99.90
22337;DHT22;14992;50.844;4.418;2023-03-01T04:49:08;0.90;99.90
22337;DHT22;14992;50.844;4.418;2023-03-01T04:51:37;0.80;99.90
22337;DHT22;14992;50.844;4.418;2023-03-01T04:54:06;0.90;99.90
22337;DHT22;14992;50.844;4.418;2023-03-01T04:56:36;0.80;99.90
22337;DHT22;14992;50.844;4.418;2023-03-01T04:59:06;0.70;99.90
22337;DHT22;14992;50.844;4.418;2023-03-01T05:01:37;0.70;99.90
22337;DHT22;14992;50.844;4.418;2023-03-01T05:04:05;0.70;99.90
22337;DHT22;14992;50.844;4.418;2023-03-01T05:06:34;0.60;99.90
22337;DHT22;14992;50.844;4.418;2023-03-01T05:09:03;0.60;99.90
22337;DHT22;14992;50.844;4.418;2023-03-01T05:11:32;0.60;99.90
22337;DHT22;14992;50.844;4.418;2023-03-01T05:14:03;0.60;99.90
22337;DHT22;14992;50.844;4.418;2023-03-01T05:16:35;0.60;99.90
22337;DHT22;14992;50.844;4.418;2023-03-01T05:19:04;0.60;99.90
22337;DHT22;14992;50.844;4.418;2023-03-01T05:21:39;0.60;99.90
22337;DHT22;14992;50.844;4.418;2023-03-01T05:24:28;0.70;99.90
22337;DHT22;14992;50.844;4.418;2023-03-01T05:26:58;0.80;99.90
22337;DHT22;14992;50.844;4.418;2023-03-01T05:29:28;0.70;99.90
22337;DHT22;14992;50.844;4.418;2023-03-01T05:32:00;0.70;99.90
22337;DHT22;14992;50.844;4.418;2023-03-01T05:34:32;0.70;99.90
22337;DHT22;14992;50.844;4.418;2023-03-01T05:37:01;0.70;99.90
22337;DHT22;14992;50.844;4.418;2023-03-01T05:39:30;0.60;99.90
22337;DHT22;14992;50.844;4.418;2023-03-01T05:42:00;0.60;99.90
22337;DHT22;14992;50.844;4.418;2023-03-01T05:44:29;0.60;99.90
22337;DHT22;14992;50.844;4.418;2023-03-01T05:46:59;0.50;99.90
22337;DHT22;14992;50.844;4.418;2023-03-01T05:49:28;0.40;99.90
22337;DHT22;14992;50.844;4.418;2023-03-01T05:51:57;0.40;99.90
22337;DHT22;14992;50.844;4.418;2023-03-01T05:54:26;0.40;99.90
22337;DHT22;14992;50.844;4.418;2023-03-01T05:56:55;0.50;99.90
22337;DHT22;14992;50.844;4.418;2023-03-01T05:59:23;0.40;99.90
22337;DHT22;14992;50.844;4.418;2023-03-01T06:01:52;0.30;99.90
22337;DHT22;14992;50.844;4.418;2023-03-01T06:04:22;0.30;99.90
22337;DHT22;14992;50.844;4.418;2023-03-01T06:06:51;0.20;99.90
22337;DHT22;14992;50.844;4.418;2023-03-01T06:09:20;0.20;99.90
22337;DHT22;14992;50.844;4.418;2023-03-01T06:11:49;0.30;99.90
22337;DHT22;14992;50.844;4.418;2023-03-01T06:14:17;0.30;99.90
22337;DHT22;14992;50.844;4.418;2023-03-01T06:16:48;0.40;99.90
22337;DHT22;14992;50.844;4.418;2023-03-01T06:19:16;0.40;99.90
22337;DHT22;14992;50.844;4.418;2023-03-01T06:21:47;0.40;99.90
22337;DHT22;14992;50.844;4.418;2023-03-01T06:24:15;0.40;99.90
22337;DHT22;14992;50.844;4.418;2023-03-01T06:26:44;0.40;99.90
22337;DHT22;14992;50.844;4.418;2023-03-01T06:29:13;0.40;99.90
22337;DHT22;14992;50.844;4.418;2023-03-01T06:31:41;0.40;99.90
22337;DHT22;14992;50.844;4.418;2023-03-01T06:34:10;0.30;99.90
22337;DHT22;14992;50.844;4.418;2023-03-01T06:36:40;0.10;99.90
22337;DHT22;14992;50.844;4.418;2023-03-01T06:39:11;0.10;99.90
22337;DHT22;14992;50.844;4.418;2023-03-01T06:41:39;0.10;99.90
22337;DHT22;14992;50.844;4.418;2023-03-01T06:44:09;0.10;99.90
22337;DHT22;14992;50.844;4.418;2023-03-01T06:46:38;0.10;99.90
22337;DHT22;14992;50.844;4.418;2023-03-01T06:49:07;0.10;99.90
22337;DHT22;14992;50.844;4.418;2023-03-01T06:51:36;0.30;99.90
22337;DHT22;14992;50.844;4.418;2023-03-01T06:54:05;0.40;99.90
22337;DHT22;14992;50.844;4.418;2023-03-01T06:56:35;0.40;99.90
22337;DHT22;14992;50.844;4.418;2023-03-01T06:59:04;0.50;99.90
22337;DHT22;14992;50.844;4.418;2023-03-01T07:01:33;0.60;99.90
22337;DHT22;14992;50.844;4.418;2023-03-01T07:04:02;0.80;99.90
22337;DHT22;14992;50.844;4.418;2023-03-01T07:06:31;0.80;99.90
22337;DHT22;14992;50.844;4.418;2023-03-01T07:08:59;0.80;99.90
22337;DHT22;14992;50.844;4.418;2023-03-01T07:11:28;0.80;99.90
22337;DHT22;14992;50.844;4.418;2023-03-01T07:13:58;0.70;99.90
22337;DHT22;14992;50.844;4.418;2023-03-01T07:16:27;0.80;99.90
22337;DHT22;14992;50.844;4.418;2023-03-01T07:18:56;0.90;99.90
22337;DHT22;14992;50.844;4.418;2023-03-01T07:21:27;0.80;99.90
22337;DHT22;14992;50.844;4.418;2023-03-01T07:23:56;0.70;99.90
22337;DHT22;14992;50.844;4.418;2023-03-01T07:26:24;0.70;99.90
22337;DHT22;14992;50.844;4.418;2023-03-01T07:28:53;0.70;99.90
22337;DHT22;14992;50.844;4.418;2023-03-01T07:31:23;0.60;99.90
22337;DHT22;14992;50.844;4.418;2023-03-01T07:33:55;0.60;99.90
22337;DHT22;14992;50.844;4.418;2023-03-01T07:36:24;0.50;99.90
22337;DHT22;14992;50.844;4.418;2023-03-01T07:38:53;0.40;99.90
22337;DHT22;14992;50.844;4.418;2023-03-01T07:41:23;0.40;99.90
22337;DHT22;14992;50.844;4.418;2023-03-01T07:43:52;0.40;99.90
22337;DHT22;14992;50.844;4.418;2023-03-01T07:46:22;0.40;99.90
22337;DHT22;14992;50.844;4.418;2023-03-01T07:48:51;0.50;99.90
22337;DHT22;14992;50.844;4.418;2023-03-01T07:51:20;0.70;99.90
22337;DHT22;14992;50.844;4.418;2023-03-01T07:53:49;0.80;99.90
22337;DHT22;14992;50.844;4.418;2023-03-01T07:56:18;0.80;99.90
22337;DHT22;14992;50.844;4.418;2023-03-01T07:58:48;0.80;99.90
22337;DHT22;14992;50.844;4.418;2023-03-01T08:01:19;0.90;99.90
22337;DHT22;14992;50.844;4.418;2023-03-01T08:03:50;1.00;99.90
22337;DHT22;14992;50.844;4.418;2023-03-01T08:06:19;0.90;99.90
22337;DHT22;14992;50.844;4.418;2023-03-01T08:08:47;1.00;99.90
22337;DHT22;14992;50.844;4.418;2023-03-01T08:11:16;1.00;99.90
22337;DHT22;14992;50.844;4.418;2023-03-01T08:13:47;1.00;99.90
22337;DHT22;14992;50.844;4.418;2023-03-01T08:16:20;1.00;99.90
22337;DHT22;14992;50.844;4.418;2023-03-01T08:18:50;1.10;99.90
22337;DHT22;14992;50.844;4.418;2023-03-01T08:21:19;1.10;99.90
22337;DHT22;14992;50.844;4.418;2023-03-01T08:23:48;1.10;99.90
22337;DHT22;14992;50.844;4.418;2023-03-01T08:26:18;1.20;99.90
22337;DHT22;14992;50.844;4.418;2023-03-01T08:28:48;1.30;99.90
22337;DHT22;14992;50.844;4.418;2023-03-01T08:31:19;1.30;99.90
22337;DHT22;14992;50.844;4.418;2023-03-01T08:33:51;1.40;99.90
22337;DHT22;14992;50.844;4.418;2023-03-01T08:36:23;1.60;99.90
22337;DHT22;14992;50.844;4.418;2023-03-01T08:38:52;1.60;99.90
22337;DHT22;14992;50.844;4.418;2023-03-01T08:41:21;1.70;99.90
22337;DHT22;14992;50.844;4.418;2023-03-01T08:43:50;1.70;99.90
22337;DHT22;14992;50.844;4.418;2023-03-01T08:46:20;1.80;99.90
22337;DHT22;14992;50.844;4.418;2023-03-01T08:48:50;1.90;99.90
22337;DHT22;14992;50.844;4.418;2023-03-01T08:51:19;2.00;99.90
22337;DHT22;14992;50.844;4.418;2023-03-01T08:53:49;2.00;99.90
22337;DHT22;14992;50.844;4.418;2023-03-01T08:56:18;2.10;99.90
22337;DHT22;14992;50.844;4.418;2023-03-01T08:58:48;2.20;99.90
22337;DHT22;14992;50.844;4.418;2023-03-01T09:01:18;2.20;99.90
22337;DHT22;14992;50.844;4.418;2023-03-01T09:03:47;2.20;99.90
22337;DHT22;14992;50.844;4.418;2023-03-01T09:06:18;2.30;99.90
22337;DHT22;14992;50.844;4.418;2023-03-01T09:08:48;2.40;99.90
22337;DHT22;14992;50.844;4.418;2023-03-01T09:11:20;2.40;99.90
22337;DHT22;14992;50.844;4.418;2023-03-01T09:13:49;2.20;99.90
22337;DHT22;14992;50.844;4.418;2023-03-01T09:16:19;2.30;99.90
22337;DHT22;14992;50.844;4.418;2023-03-01T09:18:49;2.30;99.90
22337;DHT22;14992;50.844;4.418;2023-03-01T09:21:22;2.40;99.90
22337;DHT22;14992;50.844;4.418;2023-03-01T09:24:13;2.50;99.90
22337;DHT22;14992;50.844;4.418;2023-03-01T09:26:42;2.70;99.90
22337;DHT22;14992;50.844;4.418;2023-03-01T09:29:15;2.80;99.90
22337;DHT22;14992;50.844;4.418;2023-03-01T09:31:44;2.90;99.90
22337;DHT22;14992;50.844;4.418;2023-03-01T09:34:13;3.00;99.90
22337;DHT22;14992;50.844;4.418;2023-03-01T09:36:44;3.10;99.90
22337;DHT22;14992;50.844;4.418;2023-03-01T09:39:13;3.10;99.90
22337;DHT22;14992;50.844;4.418;2023-03-01T09:41:46;3.10;99.90
22337;DHT22;14992;50.844;4.418;2023-03-01T09:44:28;3.10;99.90
22337;DHT22;14992;50.844;4.418;2023-03-01T09:46:59;3.30;99.90
22337;DHT22;14992;50.844;4.418;2023-03-01T09:49:30;3.20;99.90
22337;DHT22;14992;50.844;4.418;2023-03-01T09:52:17;3.30;99.90
22337;DHT22;14992;50.844;4.418;2023-03-01T09:54:51;3.30;99.90
22337;DHT22;14992;50.844;4.418;2023-03-01T09:57:28;3.50;99.90
22337;DHT22;14992;50.844;4.418;2023-03-01T10:00:07;3.80;99.90
22337;DHT22;14992;50.844;4.418;2023-03-01T10:02:43;3.90;99.90
22337;DHT22;14992;50.844;4.418;2023-03-01T10:05:33;4.20;99.90
22337;DHT22;14992;50.844;4.418;2023-03-01T10:08:13;4.40;99.90
22337;DHT22;14992;50.844;4.418;2023-03-01T10:10:44;4.40;99.90
22337;DHT22;14992;50.844;4.418;2023-03-01T10:13:17;4.40;99.90
22337;DHT22;14992;50.844;4.418;2023-03-01T10:15:49;4.40;99.90
22337;DHT22;14992;50.844;4.418;2023-03-01T10:18:26;4.40;99.90
22337;DHT22;14992;50.844;4.418;2023-03-01T10:20:58;4.50;99.90
22337;DHT22;14992;50.844;4.418;2023-03-01T10:23:32;4.50;99.90
22337;DHT22;14992;50.844;4.418;2023-03-01T10:26:22;4.50;99.90
22337;DHT22;14992;50.844;4.418;2023-03-01T10:29:01;4.60;99.90
22337;DHT22;14992;50.844;4.418;2023-03-01T10:31:38;4.60;99.90
22337;DHT22;14992;50.844;4.418;2023-03-01T10:34:13;4.70;99.90
22337;DHT22;14992;50.844;4.418;2023-03-01T10:36:47;4.80;99.90
22337;DHT22;14992;50.844;4.418;2023-03-01T10:39:19;4.80;99.90
22337;DHT22;14992;50.844;4.418;2023-03-01T10:41:57;4.80;99.90
22337;DHT22;14992;50.844;4.418;2023-03-01T10:44:50;4.80;99.90
22337;DHT22;14992;50.844;4.418;2023-03-01T10:47:21;4.80;99.90
22337;DHT22;14992;50.844;4.418;2023-03-01T10:49:56;4.90;99.90
22337;DHT22;14992;50.844;4.418;2023-03-01T10:52:27;4.90;99.90
22337;DHT22;14992;50.844;4.418;2023-03-01T10:55:00;5.10;99.90
22337;DHT22;14992;50.844;4.418;2023-03-01T10:57:33;5.10;99.90
22337;DHT22;14992;50.844;4.418;2023-03-01T11:00:18;5.10;99.90
22337;DHT22;14992;50.844;4.418;2023-03-01T11:02:48;5.00;99.90
22337;DHT22;14992;50.844;4.418;2023-03-01T11:05:21;5.00;99.90
22337;DHT22;14992;50.844;4.418;2023-03-01T11:07:52;5.20;99.90
22337;DHT22;14992;50.844;4.418;2023-03-01T11:10:26;5.20;99.90
22337;DHT22;14992;50.844;4.418;2023-03-01T11:13:07;5.10;99.90
22337;DHT22;14992;50.844;4.418;2023-03-01T11:15:36;5.10;99.90
22337;DHT22;14992;50.844;4.418;2023-03-01T11:18:05;5.00;99.90
22337;DHT22;14992;50.844;4.418;2023-03-01T11:20:48;5.00;99.90
22337;DHT22;14992;50.844;4.418;2023-03-01T11:23:17;5.20;99.90
22337;DHT22;14992;50.844;4.418;2023-03-01T11:25:53;5.30;99.90
22337;DHT22;14992;50.844;4.418;2023-03-01T11:28:24;5.50;99.90
22337;DHT22;14992;50.844;4.418;2023-03-01T11:30:58;5.60;99.90
22337;DHT22;14992;50.844;4.418;2023-03-01T11:33:42;5.60;99.90
22337;DHT22;14992;50.844;4.418;2023-03-01T11:36:27;5.90;99.90
22337;DHT22;14992;50.844;4.418;2023-03-01T11:38:57;5.90;99.90
22337;DHT22;14992;50.844;4.418;2023-03-01T11:41:33;5.80;99.90
22337;DHT22;14992;50.844;4.418;2023-03-01T11:44:12;5.80;99.90
22337;DHT22;14992;50.844;4.418;2023-03-01T11:47:11;5.80;99.90
22337;DHT22;14992;50.844;4.418;2023-03-01T11:50:10;5.90;99.90
22337;DHT22;14992;50.844;4.418;2023-03-01T11:52:54;6.10;99.90
22337;DHT22;14992;50.844;4.418;2023-03-01T11:55:32;6.30;99.90
22337;DHT22;14992;50.844;4.418;2023-03-01T11:58:22;6.20;99.90
22337;DHT22;14992;50.844;4.418;2023-03-01T12:01:16;6.10;99.90
22337;DHT22;14992;50.844;4.418;2023-03-01T12:04:25;6.20;99.90
22337;DHT22;14992;50.844;4.418;2023-03-01T12:07:01;6.20;99.90
22337;DHT22;14992;50.844;4.418;2023-03-01T12:09:42;6.30;99.90
22337;DHT22;14992;50.844;4.418;2023-03-01T12:12:32;6.50;99.90
22337;DHT22;14992;50.844;4.418;2023-03-01T12:18:25;6.50;99.90
22337;DHT22;14992;50.844;4.418;2023-03-01T12:21:03;6.70;99.90
22337;DHT22;14992;50.844;4.418;2023-03-01T12:23:48;6.80;99.90
22337;DHT22;14992;50.844;4.418;2023-03-01T12:26:26;6.80;99.90
22337;DHT22;14992;50.844;4.418;2023-03-01T12:29:07;6.70;99.90
22337;DHT22;14992;50.844;4.418;2023-03-01T12:32:06;6.90;99.90
22337;DHT22;14992;50.844;4.418;2023-03-01T12:35:00;6.80;99.90
22337;DHT22;14992;50.844;4.418;2023-03-01T12:37:38;6.50;99.90
22337;DHT22;14992;50.844;4.418;2023-03-01T12:40:25;6.40;99.90
22337;DHT22;14992;50.844;4.418;2023-03-01T12:43:08;6.50;99.90
22337;DHT22;14992;50.844;4.418;2023-03-01T12:45:47;6.40;99.90
22337;DHT22;14992;50.844;4.418;2023-03-01T12:48:27;6.40;99.90
22337;DHT22;14992;50.844;4.418;2023-03-01T12:51:02;6.30;99.90
22337;DHT22;14992;50.844;4.418;2023-03-01T12:53:34;6.30;99.90
22337;DHT22;14992;50.844;4.418;2023-03-01T12:56:06;6.50;99.90
22337;DHT22;14992;50.844;4.418;2023-03-01T12:58:41;6.70;99.90
22337;DHT22;14992;50.844;4.418;2023-03-01T13:01:24;6.80;99.90
22337;DHT22;14992;50.844;4.418;2023-03-01T13:06:58;6.90;98.40
22337;DHT22;14992;50.844;4.418;2023-03-01T13:09:37;6.90;98.20
22337;DHT22;14992;50.844;4.418;2023-03-01T13:12:43;7.00;97.40
22337;DHT22;14992;50.844;4.418;2023-03-01T13:15:31;7.00;97.30
22337;DHT22;14992;50.844;4.418;2023-03-01T13:18:01;7.00;98.40
22337;DHT22;14992;50.844;4.418;2023-03-01T13:20:34;6.90;98.00
22337;DHT22;14992;50.844;4.418;2023-03-01T13:23:24;6.90;98.60
22337;DHT22;14992;50.844;4.418;2023-03-01T13:26:14;6.70;98.00
22337;DHT22;14992;50.844;4.418;2023-03-01T13:28:54;6.80;98.20
22337;DHT22;14992;50.844;4.418;2023-03-01T13:31:58;6.80;97.50
22337;DHT22;14992;50.844;4.418;2023-03-01T13:34:48;6.90;97.70
22337;DHT22;14992;50.844;4.418;2023-03-01T13:37:39;6.80;97.40
22337;DHT22;14992;50.844;4.418;2023-03-01T13:43:29;6.90;96.20
22337;DHT22;14992;50.844;4.418;2023-03-01T13:45:58;6.90;96.70
22337;DHT22;14992;50.844;4.418;2023-03-01T13:48:29;7.00;96.70
22337;DHT22;14992;50.844;4.418;2023-03-01T13:51:00;7.10;96.80
22337;DHT22;14992;50.844;4.418;2023-03-01T13:53:34;7.20;97.00
22337;DHT22;14992;50.844;4.418;2023-03-01T13:56:08;7.20;95.70
22337;DHT22;14992;50.844;4.418;2023-03-01T13:58:52;7.20;95.30
22337;DHT22;14992;50.844;4.418;2023-03-01T14:01:25;7.20;94.20
22337;DHT22;14992;50.844;4.418;2023-03-01T14:03:57;7.10;95.10
22337;DHT22;14992;50.844;4.418;2023-03-01T14:06:28;7.10;95.60
22337;DHT22;14992;50.844;4.418;2023-03-01T14:09:05;7.20;95.70
22337;DHT22;14992;50.844;4.418;2023-03-01T14:14:59;7.30;95.10
22337;DHT22;14992;50.844;4.418;2023-03-01T14:17:43;7.20;94.40
22337;DHT22;14992;50.844;4.418;2023-03-01T14:20:18;7.10;93.70
22337;DHT22;14992;50.844;4.418;2023-03-01T14:22:49;7.10;94.20
22337;DHT22;14992;50.844;4.418;2023-03-01T14:25:23;7.00;94.20
22337;DHT22;14992;50.844;4.418;2023-03-01T14:27:55;7.10;95.40
22337;DHT22;14992;50.844;4.418;2023-03-01T14:30:27;7.10;95.70
22337;DHT22;14992;50.844;4.418;2023-03-01T14:32:59;7.20;95.50
22337;DHT22;14992;50.844;4.418;2023-03-01T14:35:30;7.20;95.00
22337;DHT22;14992;50.844;4.418;2023-03-01T14:38:00;7.20;95.60
22337;DHT22;14992;50.844;4.418;2023-03-01T14:40:32;7.20;95.30
22337;DHT22;14992;50.844;4.418;2023-03-01T14:43:09;7.30;95.10
22337;DHT22;14992;50.844;4.418;2023-03-01T14:45:39;7.30;94.50
22337;DHT22;14992;50.844;4.418;2023-03-01T14:48:08;7.20;95.30
22337;DHT22;14992;50.844;4.418;2023-03-01T14:50:41;7.20;95.50
22337;DHT22;14992;50.844;4.418;2023-03-01T14:53:17;7.20;95.90
22337;DHT22;14992;50.844;4.418;2023-03-01T14:55:51;7.40;95.10
22337;DHT22;14992;50.844;4.418;2023-03-01T14:58:22;7.20;95.10
22337;DHT22;14992;50.844;4.418;2023-03-01T15:00:56;7.20;95.50
22337;DHT22;14992;50.844;4.418;2023-03-01T15:03:27;7.20;95.90
22337;DHT22;14992;50.844;4.418;2023-03-01T15:05:59;7.40;95.60
22337;DHT22;14992;50.844;4.418;2023-03-01T15:08:29;7.50;95.20
22337;DHT22;14992;50.844;4.418;2023-03-01T15:11:04;7.60;95.10
22337;DHT22;14992;50.844;4.418;2023-03-01T15:13:35;7.60;94.00
22337;DHT22;14992;50.844;4.418;2023-03-01T15:16:09;7.60;93.70
22337;DHT22;14992;50.844;4.418;2023-03-01T15:18:45;7.60;93.90
22337;DHT22;14992;50.844;4.418;2023-03-01T15:21:17;7.60;94.40
22337;DHT22;14992;50.844;4.418;2023-03-01T15:23:50;7.50;94.70
22337;DHT22;14992;50.844;4.418;2023-03-01T15:26:24;7.50;94.60
22337;DHT22;14992;50.844;4.418;2023-03-01T15:28:56;7.40;95.10
22337;DHT22;14992;50.844;4.418;2023-03-01T15:31:28;7.40;95.30
22337;DHT22;14992;50.844;4.418;2023-03-01T15:34:10;7.50;95.20
22337;DHT22;14992;50.844;4.418;2023-03-01T15:36:44;7.40;95.50
22337;DHT22;14992;50.844;4.418;2023-03-01T15:39:39;7.40;95.40
22337;DHT22;14992;50.844;4.418;2023-03-01T15:42:35;7.40;95.20
22337;DHT22;14992;50.844;4.418;2023-03-01T15:45:10;7.40;95.30
22337;DHT22;14992;50.844;4.418;2023-03-01T15:47:40;7.50;94.90
22337;DHT22;14992;50.844;4.418;2023-03-01T15:50:16;7.30;95.30
22337;DHT22;14992;50.844;4.418;2023-03-01T15:52:46;7.30;95.50
22337;DHT22;14992;50.844;4.418;2023-03-01T15:55:18;7.40;95.10
22337;DHT22;14992;50.844;4.418;2023-03-01T15:57:49;7.40;95.30
22337;DHT22;14992;50.844;4.418;2023-03-01T16:00:19;7.40;95.40
22337;DHT22;14992;50.844;4.418;2023-03-01T16:02:48;7.30;95.50
22337;DHT22;14992;50.844;4.418;2023-03-01T16:05:20;7.30;95.60
22337;DHT22;14992;50.844;4.418;2023-03-01T16:07:50;7.20;96.00
22337;DHT22;14992;50.844;4.418;2023-03-01T16:10:20;7.20;95.80
22337;DHT22;14992;50.844;4.418;2023-03-01T16:12:51;7.20;95.90
22337;DHT22;14992;50.844;4.418;2023-03-01T16:15:22;7.10;96.20
22337;DHT22;14992;50.844;4.418;2023-03-01T16:17:51;7.10;95.10
22337;DHT22;14992;50.844;4.418;2023-03-01T16:20:23;7.10;94.40
22337;DHT22;14992;50.844;4.418;2023-03-01T16:22:58;7.10;94.20
22337;DHT22;14992;50.844;4.418;2023-03-01T16:25:28;7.10;94.50
22337;DHT22;14992;50.844;4.418;2023-03-01T16:27:59;7.20;94.70
22337;DHT22;14992;50.844;4.418;2023-03-01T16:30:31;7.10;95.00
22337;DHT22;14992;50.844;4.418;2023-03-01T16:33:03;7.10;95.00